SCRIPT_RESULTS Banner
TAF for LQMO

by Dr. Günther Eichhorn

TAF for LQMO provided by aerobaticsweb.org
Current time: Saturday, 28 May, 2022, 19:25 UTC
(This may take a minute, please be patient)


The most recent TAF forecast from LQMO in our system was generated at
2022/05/28 18:08
The forecast is:
LQMO 2022/05/28 18:08
TAF LQMO 281700Z 2818/2918 01010KT 9999 SCT050 TX28/2913Z TN18/2903Z PROB40
TEMPO 2822/2905 01015G25KT
TEMPO 2910/2918 VRB15G25KT TSRA FEW040CB SCT045



access provided by Dr. Guenther Eichhorn at aerobaticsweb.org